Main page
METAR-TAF:

METAR-TAF

Airports :

Lappeenranta Airport

Lappeenranta, Finland

latitude: 61-02-45N, longitude: 028-08-55E, elevation: 106 m

Current weather observation

The report was made 34 minutes ago, at 08:20 UTC
Wind 4 kt from the Southeast, varying between East/Northeast and South/Southwest
Temperature -1°C
Humidity 86%
Pressure 1033 hPa
Visibility 10 km or more
Overcast at a height of 2000 ft

METAR: EFLP 220820Z 13004KT 070V200 9999 OVC020 M01/M03 Q1033

Time: 10:54 (08:54 UTC)

Forecast

The report was made 22 minutes ago, at 08:32 UTC
Forecast valid from 22 at 09 UTC to 22 at 11 UTC
Wind 7 kt from the Southeast
Visibility 10 km or more
Broken clouds at a height of 2300 ft

TAF: EFLP 220832Z 2209/2211 14007KT 9999 BKN023

Weather observations and forecasts of more than 4000 airports (METAR and TAF reports).

The available stations are represented by yellow and red dots on the map.

Hover mouse over dot to see the name of the station.

Then click to see weather observations and forecasts.

To change the map : click on the green buttons with a black cross to zoom in, on the green button with a dash to zoom out, or on the green arrows for adjacent maps.


METAR-TAF: